sensor_id;sensor_type;location;lat;lon;timestamp;P1;durP1;ratioP1;P2;durP2;ratioP2
35494;SDS011;21608;49.300;6.846;2022-11-02T00:01:22;3.03;;;1.40;;
35494;SDS011;21608;49.300;6.846;2022-11-02T00:04:27;2.47;;;1.58;;
35494;SDS011;21608;49.300;6.846;2022-11-02T00:07:28;2.65;;;1.30;;
35494;SDS011;21608;49.300;6.846;2022-11-02T00:10:30;2.47;;;1.55;;
35494;SDS011;21608;49.300;6.846;2022-11-02T00:13:32;1.88;;;1.60;;
35494;SDS011;21608;49.300;6.846;2022-11-02T00:16:34;2.20;;;1.27;;
35494;SDS011;21608;49.300;6.846;2022-11-02T00:19:39;1.52;;;1.30;;
35494;SDS011;21608;49.300;6.846;2022-11-02T00:22:41;1.42;;;1.30;;
35494;SDS011;21608;49.300;6.846;2022-11-02T00:25:45;1.65;;;1.40;;
35494;SDS011;21608;49.300;6.846;2022-11-02T00:28:49;2.25;;;1.30;;
35494;SDS011;21608;49.300;6.846;2022-11-02T00:31:50;1.98;;;1.50;;
35494;SDS011;21608;49.300;6.846;2022-11-02T00:34:52;2.33;;;1.20;;
35494;SDS011;21608;49.300;6.846;2022-11-02T00:37:54;3.17;;;1.50;;
35494;SDS011;21608;49.300;6.846;2022-11-02T00:40:55;2.05;;;1.55;;
35494;SDS011;21608;49.300;6.846;2022-11-02T00:43:57;1.27;;;1.17;;
35494;SDS011;21608;49.300;6.846;2022-11-02T00:46:59;1.30;;;1.20;;
35494;SDS011;21608;49.300;6.846;2022-11-02T00:50:01;1.73;;;1.63;;
35494;SDS011;21608;49.300;6.846;2022-11-02T00:53:04;1.63;;;1.15;;
35494;SDS011;21608;49.300;6.846;2022-11-02T00:56:07;2.08;;;1.35;;
35494;SDS011;21608;49.300;6.846;2022-11-02T00:59:09;1.80;;;1.40;;
35494;SDS011;21608;49.300;6.846;2022-11-02T01:02:11;2.10;;;1.48;;
35494;SDS011;21608;49.300;6.846;2022-11-02T01:05:13;1.30;;;1.20;;
35494;SDS011;21608;49.300;6.846;2022-11-02T01:08:14;3.30;;;1.65;;
35494;SDS011;21608;49.300;6.846;2022-11-02T01:11:17;1.60;;;1.35;;
35494;SDS011;21608;49.300;6.846;2022-11-02T01:14:20;2.28;;;1.33;;
35494;SDS011;21608;49.300;6.846;2022-11-02T01:17:22;1.65;;;1.17;;
35494;SDS011;21608;49.300;6.846;2022-11-02T01:20:24;1.20;;;1.08;;
35494;SDS011;21608;49.300;6.846;2022-11-02T01:23:26;1.40;;;1.30;;
35494;SDS011;21608;49.300;6.846;2022-11-02T01:26:28;1.90;;;1.70;;
35494;SDS011;21608;49.300;6.846;2022-11-02T01:29:30;1.70;;;1.23;;
35494;SDS011;21608;49.300;6.846;2022-11-02T01:32:32;1.60;;;1.25;;
35494;SDS011;21608;49.300;6.846;2022-11-02T01:35:36;1.70;;;1.35;;
35494;SDS011;21608;49.300;6.846;2022-11-02T01:38:38;1.60;;;1.27;;
35494;SDS011;21608;49.300;6.846;2022-11-02T01:41:41;2.05;;;1.45;;
35494;SDS011;21608;49.300;6.846;2022-11-02T01:44:44;2.28;;;1.38;;
35494;SDS011;21608;49.300;6.846;2022-11-02T01:47:46;2.22;;;1.33;;
35494;SDS011;21608;49.300;6.846;2022-11-02T01:50:49;1.88;;;1.67;;
35494;SDS011;21608;49.300;6.846;2022-11-02T01:53:51;1.88;;;1.23;;
35494;SDS011;21608;49.300;6.846;2022-11-02T01:57:00;1.95;;;1.52;;
35494;SDS011;21608;49.300;6.846;2022-11-02T02:00:09;1.75;;;1.15;;
35494;SDS011;21608;49.300;6.846;2022-11-02T02:03:16;3.38;;;1.17;;
35494;SDS011;21608;49.300;6.846;2022-11-02T02:06:22;2.42;;;1.38;;
35494;SDS011;21608;49.300;6.846;2022-11-02T02:09:28;1.80;;;1.48;;
35494;SDS011;21608;49.300;6.846;2022-11-02T02:12:31;2.97;;;1.00;;
35494;SDS011;21608;49.300;6.846;2022-11-02T02:15:37;3.03;;;1.38;;
35494;SDS011;21608;49.300;6.846;2022-11-02T02:18:47;2.25;;;1.10;;
35494;SDS011;21608;49.300;6.846;2022-11-02T02:22:07;3.78;;;1.23;;
35494;SDS011;21608;49.300;6.846;2022-11-02T02:32:07;1.27;;;1.17;;
35494;SDS011;21608;49.300;6.846;2022-11-02T02:41:36;2.45;;;1.30;;
35494;SDS011;21608;49.300;6.846;2022-11-02T02:44:52;1.73;;;1.30;;
35494;SDS011;21608;49.300;6.846;2022-11-02T02:48:10;1.63;;;1.23;;
35494;SDS011;21608;49.300;6.846;2022-11-02T02:51:28;1.13;;;1.02;;
35494;SDS011;21608;49.300;6.846;2022-11-02T02:54:37;1.20;;;1.10;;
35494;SDS011;21608;49.300;6.846;2022-11-02T02:57:42;1.65;;;1.40;;
35494;SDS011;21608;49.300;6.846;2022-11-02T03:00:46;1.90;;;1.15;;
35494;SDS011;21608;49.300;6.846;2022-11-02T03:03:48;1.95;;;1.35;;
35494;SDS011;21608;49.300;6.846;2022-11-02T03:06:51;1.75;;;1.20;;
35494;SDS011;21608;49.300;6.846;2022-11-02T03:10:19;1.45;;;1.20;;
35494;SDS011;21608;49.300;6.846;2022-11-02T03:13:34;2.30;;;1.52;;
35494;SDS011;21608;49.300;6.846;2022-11-02T03:16:53;2.38;;;1.48;;
35494;SDS011;21608;49.300;6.846;2022-11-02T03:20:31;1.20;;;1.10;;
35494;SDS011;21608;49.300;6.846;2022-11-02T03:23:40;2.42;;;1.10;;
35494;SDS011;21608;49.300;6.846;2022-11-02T03:26:59;2.22;;;1.20;;
35494;SDS011;21608;49.300;6.846;2022-11-02T03:30:17;1.52;;;1.20;;
35494;SDS011;21608;49.300;6.846;2022-11-02T03:33:25;1.08;;;0.90;;
35494;SDS011;21608;49.300;6.846;2022-11-02T03:36:39;1.48;;;1.20;;
35494;SDS011;21608;49.300;6.846;2022-11-02T03:39:51;1.25;;;1.15;;
35494;SDS011;21608;49.300;6.846;2022-11-02T03:43:07;1.33;;;1.00;;
35494;SDS011;21608;49.300;6.846;2022-11-02T03:46:10;1.10;;;0.98;;
35494;SDS011;21608;49.300;6.846;2022-11-02T03:49:17;2.55;;;1.35;;
35494;SDS011;21608;49.300;6.846;2022-11-02T03:52:22;1.20;;;1.10;;
35494;SDS011;21608;49.300;6.846;2022-11-02T03:55:34;1.25;;;1.13;;
35494;SDS011;21608;49.300;6.846;2022-11-02T03:58:39;2.67;;;1.00;;
35494;SDS011;21608;49.300;6.846;2022-11-02T04:01:45;2.00;;;0.90;;
35494;SDS011;21608;49.300;6.846;2022-11-02T04:04:54;1.20;;;0.90;;
35494;SDS011;21608;49.300;6.846;2022-11-02T04:07:58;1.40;;;1.10;;
35494;SDS011;21608;49.300;6.846;2022-11-02T04:11:19;1.05;;;0.88;;
35494;SDS011;21608;49.300;6.846;2022-11-02T04:14:43;1.35;;;1.00;;
35494;SDS011;21608;49.300;6.846;2022-11-02T04:17:49;1.52;;;1.20;;
35494;SDS011;21608;49.300;6.846;2022-11-02T04:21:11;1.10;;;1.00;;
35494;SDS011;21608;49.300;6.846;2022-11-02T04:24:12;1.33;;;0.90;;
35494;SDS011;21608;49.300;6.846;2022-11-02T04:27:33;0.95;;;0.85;;
35494;SDS011;21608;49.300;6.846;2022-11-02T04:30:36;1.10;;;1.00;;
35494;SDS011;21608;49.300;6.846;2022-11-02T04:33:38;1.35;;;1.17;;
35494;SDS011;21608;49.300;6.846;2022-11-02T04:36:46;1.73;;;0.88;;
35494;SDS011;21608;49.300;6.846;2022-11-02T04:39:48;1.25;;;0.98;;
35494;SDS011;21608;49.300;6.846;2022-11-02T04:42:50;1.55;;;1.17;;
35494;SDS011;21608;49.300;6.846;2022-11-02T04:45:52;1.40;;;0.90;;
35494;SDS011;21608;49.300;6.846;2022-11-02T04:48:58;1.20;;;1.02;;
35494;SDS011;21608;49.300;6.846;2022-11-02T04:52:03;1.33;;;0.90;;
35494;SDS011;21608;49.300;6.846;2022-11-02T04:55:08;1.83;;;0.93;;
35494;SDS011;21608;49.300;6.846;2022-11-02T04:58:11;1.67;;;0.77;;
35494;SDS011;21608;49.300;6.846;2022-11-02T05:01:14;1.75;;;1.02;;
35494;SDS011;21608;49.300;6.846;2022-11-02T05:04:17;1.20;;;1.05;;
35494;SDS011;21608;49.300;6.846;2022-11-02T05:07:21;2.97;;;0.95;;
35494;SDS011;21608;49.300;6.846;2022-11-02T05:10:24;1.05;;;0.90;;
35494;SDS011;21608;49.300;6.846;2022-11-02T05:13:27;1.27;;;0.98;;
35494;SDS011;21608;49.300;6.846;2022-11-02T05:16:32;0.73;;;0.50;;
35494;SDS011;21608;49.300;6.846;2022-11-02T05:19:35;1.48;;;1.02;;
35494;SDS011;21608;49.300;6.846;2022-11-02T05:22:41;2.03;;;0.90;;
35494;SDS011;21608;49.300;6.846;2022-11-02T05:25:54;4.25;;;0.88;;
35494;SDS011;21608;49.300;6.846;2022-11-02T05:28:58;1.27;;;0.90;;
35494;SDS011;21608;49.300;6.846;2022-11-02T05:32:01;1.30;;;1.20;;
35494;SDS011;21608;49.300;6.846;2022-11-02T05:35:03;1.13;;;0.82;;
35494;SDS011;21608;49.300;6.846;2022-11-02T05:38:06;1.08;;;0.77;;
35494;SDS011;21608;49.300;6.846;2022-11-02T05:41:08;0.88;;;0.88;;
35494;SDS011;21608;49.300;6.846;2022-11-02T05:44:12;4.03;;;1.02;;
35494;SDS011;21608;49.300;6.846;2022-11-02T05:47:14;3.15;;;0.85;;
35494;SDS011;21608;49.300;6.846;2022-11-02T05:50:16;1.38;;;0.90;;
35494;SDS011;21608;49.300;6.846;2022-11-02T05:53:18;0.70;;;0.70;;
35494;SDS011;21608;49.300;6.846;2022-11-02T05:56:20;11.80;;;1.75;;
35494;SDS011;21608;49.300;6.846;2022-11-02T05:59:25;3.28;;;1.25;;
35494;SDS011;21608;49.300;6.846;2022-11-02T06:02:27;7.88;;;1.23;;
35494;SDS011;21608;49.300;6.846;2022-11-02T06:05:29;3.25;;;1.10;;
35494;SDS011;21608;49.300;6.846;2022-11-02T06:08:31;3.28;;;1.20;;
35494;SDS011;21608;49.300;6.846;2022-11-02T06:11:37;2.80;;;0.87;;
35494;SDS011;21608;49.300;6.846;2022-11-02T06:14:39;4.30;;;1.33;;
35494;SDS011;21608;49.300;6.846;2022-11-02T06:17:41;4.30;;;1.92;;
35494;SDS011;21608;49.300;6.846;2022-11-02T06:20:42;5.22;;;2.05;;
35494;SDS011;21608;49.300;6.846;2022-11-02T06:23:47;4.43;;;2.00;;
35494;SDS011;21608;49.300;6.846;2022-11-02T06:26:49;4.97;;;1.88;;
35494;SDS011;21608;49.300;6.846;2022-11-02T06:29:52;7.82;;;2.00;;
35494;SDS011;21608;49.300;6.846;2022-11-02T06:32:54;3.42;;;1.80;;
35494;SDS011;21608;49.300;6.846;2022-11-02T06:35:55;11.48;;;1.88;;
35494;SDS011;21608;49.300;6.846;2022-11-02T06:38:57;6.43;;;1.50;;
35494;SDS011;21608;49.300;6.846;2022-11-02T06:41:59;6.97;;;2.00;;
35494;SDS011;21608;49.300;6.846;2022-11-02T06:45:01;3.47;;;1.40;;
35494;SDS011;21608;49.300;6.846;2022-11-02T06:48:03;5.70;;;1.70;;
35494;SDS011;21608;49.300;6.846;2022-11-02T06:51:05;4.03;;;1.45;;
35494;SDS011;21608;49.300;6.846;2022-11-02T06:54:07;3.63;;;1.30;;
35494;SDS011;21608;49.300;6.846;2022-11-02T06:57:09;5.40;;;1.67;;
35494;SDS011;21608;49.300;6.846;2022-11-02T07:00:12;4.93;;;1.20;;
35494;SDS011;21608;49.300;6.846;2022-11-02T07:03:23;4.03;;;1.92;;
35494;SDS011;21608;49.300;6.846;2022-11-02T07:06:25;3.95;;;1.30;;
35494;SDS011;21608;49.300;6.846;2022-11-02T07:09:27;2.83;;;1.58;;
35494;SDS011;21608;49.300;6.846;2022-11-02T07:12:30;3.28;;;1.45;;
35494;SDS011;21608;49.300;6.846;2022-11-02T07:15:33;3.55;;;1.35;;
35494;SDS011;21608;49.300;6.846;2022-11-02T07:18:34;4.72;;;1.20;;
35494;SDS011;21608;49.300;6.846;2022-11-02T07:21:36;3.75;;;1.23;;
35494;SDS011;21608;49.300;6.846;2022-11-02T07:24:42;2.67;;;1.38;;
35494;SDS011;21608;49.300;6.846;2022-11-02T07:27:44;2.78;;;1.20;;
35494;SDS011;21608;49.300;6.846;2022-11-02T07:30:46;2.88;;;1.40;;
35494;SDS011;21608;49.300;6.846;2022-11-02T07:33:47;3.30;;;1.27;;
35494;SDS011;21608;49.300;6.846;2022-11-02T07:36:49;4.40;;;1.25;;
35494;SDS011;21608;49.300;6.846;2022-11-02T07:39:51;4.15;;;1.33;;
35494;SDS011;21608;49.300;6.846;2022-11-02T07:42:53;2.53;;;1.35;;
35494;SDS011;21608;49.300;6.846;2022-11-02T07:46:04;4.22;;;1.55;;
35494;SDS011;21608;49.300;6.846;2022-11-02T07:49:07;3.15;;;1.30;;
35494;SDS011;21608;49.300;6.846;2022-11-02T07:52:08;2.30;;;1.08;;
35494;SDS011;21608;49.300;6.846;2022-11-02T07:55:11;3.45;;;1.25;;
35494;SDS011;21608;49.300;6.846;2022-11-02T07:58:13;2.38;;;1.17;;
35494;SDS011;21608;49.300;6.846;2022-11-02T08:01:15;3.63;;;1.38;;
35494;SDS011;21608;49.300;6.846;2022-11-02T08:04:17;2.17;;;1.25;;
35494;SDS011;21608;49.300;6.846;2022-11-02T08:07:18;3.17;;;1.52;;
35494;SDS011;21608;49.300;6.846;2022-11-02T08:10:20;3.47;;;1.50;;
35494;SDS011;21608;49.300;6.846;2022-11-02T08:13:22;5.72;;;1.67;;
35494;SDS011;21608;49.300;6.846;2022-11-02T08:16:26;1.80;;;1.20;;
35494;SDS011;21608;49.300;6.846;2022-11-02T08:19:28;1.80;;;1.17;;
35494;SDS011;21608;49.300;6.846;2022-11-02T08:22:30;1.52;;;1.00;;
35494;SDS011;21608;49.300;6.846;2022-11-02T08:25:32;3.20;;;1.25;;
35494;SDS011;21608;49.300;6.846;2022-11-02T08:28:34;1.90;;;1.33;;
35494;SDS011;21608;49.300;6.846;2022-11-02T08:31:36;3.05;;;1.42;;
35494;SDS011;21608;49.300;6.846;2022-11-02T08:34:38;4.05;;;1.20;;
35494;SDS011;21608;49.300;6.846;2022-11-02T08:37:40;2.78;;;1.23;;
35494;SDS011;21608;49.300;6.846;2022-11-02T08:40:42;3.92;;;1.73;;
35494;SDS011;21608;49.300;6.846;2022-11-02T08:43:45;3.15;;;1.08;;
35494;SDS011;21608;49.300;6.846;2022-11-02T08:46:46;2.05;;;1.02;;
35494;SDS011;21608;49.300;6.846;2022-11-02T08:49:48;1.83;;;1.13;;
35494;SDS011;21608;49.300;6.846;2022-11-02T08:52:51;3.30;;;1.20;;
35494;SDS011;21608;49.300;6.846;2022-11-02T08:55:55;3.78;;;1.55;;
35494;SDS011;21608;49.300;6.846;2022-11-02T08:58:58;1.40;;;0.88;;
35494;SDS011;21608;49.300;6.846;2022-11-02T09:02:00;2.35;;;1.13;;
35494;SDS011;21608;49.300;6.846;2022-11-02T09:05:02;2.63;;;1.48;;
35494;SDS011;21608;49.300;6.846;2022-11-02T09:08:05;4.57;;;1.50;;
35494;SDS011;21608;49.300;6.846;2022-11-02T09:11:10;3.67;;;1.52;;
35494;SDS011;21608;49.300;6.846;2022-11-02T09:14:14;3.90;;;1.40;;
35494;SDS011;21608;49.300;6.846;2022-11-02T09:17:16;2.15;;;1.25;;
35494;SDS011;21608;49.300;6.846;2022-11-02T09:20:18;3.80;;;1.45;;
35494;SDS011;21608;49.300;6.846;2022-11-02T09:23:21;4.43;;;1.10;;
35494;SDS011;21608;49.300;6.846;2022-11-02T09:26:23;2.78;;;1.40;;
35494;SDS011;21608;49.300;6.846;2022-11-02T09:29:25;4.20;;;1.17;;
35494;SDS011;21608;49.300;6.846;2022-11-02T09:32:27;2.83;;;1.33;;
35494;SDS011;21608;49.300;6.846;2022-11-02T09:35:34;3.15;;;1.40;;
35494;SDS011;21608;49.300;6.846;2022-11-02T09:38:40;3.35;;;1.02;;
35494;SDS011;21608;49.300;6.846;2022-11-02T09:41:45;9.70;;;1.75;;
35494;SDS011;21608;49.300;6.846;2022-11-02T09:45:05;2.67;;;1.63;;
35494;SDS011;21608;49.300;6.846;2022-11-02T09:48:18;6.05;;;1.75;;
35494;SDS011;21608;49.300;6.846;2022-11-02T09:51:33;4.03;;;1.50;;
35494;SDS011;21608;49.300;6.846;2022-11-02T09:54:42;2.17;;;1.17;;
35494;SDS011;21608;49.300;6.846;2022-11-02T09:57:52;3.20;;;1.42;;
35494;SDS011;21608;49.300;6.846;2022-11-02T10:01:03;4.40;;;1.50;;
35494;SDS011;21608;49.300;6.846;2022-11-02T10:11:06;5.97;;;1.88;;
35494;SDS011;21608;49.300;6.846;2022-11-02T10:14:26;5.00;;;2.35;;
35494;SDS011;21608;49.300;6.846;2022-11-02T10:17:33;5.30;;;1.95;;
35494;SDS011;21608;49.300;6.846;2022-11-02T10:20:39;8.77;;;2.22;;
35494;SDS011;21608;49.300;6.846;2022-11-02T10:23:49;6.32;;;1.98;;
35494;SDS011;21608;49.300;6.846;2022-11-02T10:26:54;10.48;;;2.60;;
35494;SDS011;21608;49.300;6.846;2022-11-02T10:30:14;7.45;;;2.63;;
35494;SDS011;21608;49.300;6.846;2022-11-02T10:33:21;9.25;;;2.72;;
35494;SDS011;21608;49.300;6.846;2022-11-02T10:36:39;7.70;;;2.60;;
35494;SDS011;21608;49.300;6.846;2022-11-02T10:40:06;8.90;;;2.63;;
35494;SDS011;21608;49.300;6.846;2022-11-02T10:43:27;7.38;;;2.78;;
35494;SDS011;21608;49.300;6.846;2022-11-02T10:46:39;7.78;;;2.78;;
35494;SDS011;21608;49.300;6.846;2022-11-02T10:49:58;7.20;;;2.53;;
35494;SDS011;21608;49.300;6.846;2022-11-02T10:53:12;7.03;;;2.70;;
35494;SDS011;21608;49.300;6.846;2022-11-02T10:56:36;6.40;;;2.97;;
35494;SDS011;21608;49.300;6.846;2022-11-02T10:59:38;7.20;;;2.50;;
35494;SDS011;21608;49.300;6.846;2022-11-02T11:02:41;9.23;;;3.22;;
35494;SDS011;21608;49.300;6.846;2022-11-02T11:08:50;8.10;;;2.92;;
35494;SDS011;21608;49.300;6.846;2022-11-02T11:11:57;6.03;;;2.78;;
35494;SDS011;21608;49.300;6.846;2022-11-02T11:15:02;5.80;;;2.78;;
35494;SDS011;21608;49.300;6.846;2022-11-02T11:18:26;10.10;;;2.70;;
35494;SDS011;21608;49.300;6.846;2022-11-02T11:21:48;8.20;;;2.95;;
35494;SDS011;21608;49.300;6.846;2022-11-02T11:24:50;5.05;;;2.80;;
35494;SDS011;21608;49.300;6.846;2022-11-02T11:27:56;8.05;;;2.80;;
35494;SDS011;21608;49.300;6.846;2022-11-02T11:34:03;5.88;;;2.78;;
35494;SDS011;21608;49.300;6.846;2022-11-02T11:37:07;6.15;;;2.40;;
35494;SDS011;21608;49.300;6.846;2022-11-02T11:40:16;8.35;;;3.15;;
35494;SDS011;21608;49.300;6.846;2022-11-02T11:43:21;7.40;;;2.35;;
35494;SDS011;21608;49.300;6.846;2022-11-02T11:46:42;4.68;;;2.13;;
35494;SDS011;21608;49.300;6.846;2022-11-02T11:49:47;8.07;;;3.00;;
35494;SDS011;21608;49.300;6.846;2022-11-02T11:56:23;5.40;;;2.47;;
35494;SDS011;21608;49.300;6.846;2022-11-02T11:59:30;3.88;;;2.42;;
35494;SDS011;21608;49.300;6.846;2022-11-02T12:02:46;4.78;;;2.13;;
35494;SDS011;21608;49.300;6.846;2022-11-02T12:06:19;4.43;;;2.35;;
35494;SDS011;21608;49.300;6.846;2022-11-02T12:12:59;4.53;;;2.70;;
35494;SDS011;21608;49.300;6.846;2022-11-02T12:19:35;6.47;;;2.35;;
35494;SDS011;21608;49.300;6.846;2022-11-02T12:26:25;4.47;;;2.03;;
35494;SDS011;21608;49.300;6.846;2022-11-02T12:37:11;3.95;;;2.40;;
35494;SDS011;21608;49.300;6.846;2022-11-02T12:43:41;4.82;;;2.03;;
35494;SDS011;21608;49.300;6.846;2022-11-02T12:50:56;5.80;;;2.22;;
35494;SDS011;21608;49.300;6.846;2022-11-02T12:54:09;7.53;;;2.30;;
35494;SDS011;21608;49.300;6.846;2022-11-02T12:57:16;5.70;;;2.08;;
35494;SDS011;21608;49.300;6.846;2022-11-02T13:00:21;6.28;;;2.67;;
35494;SDS011;21608;49.300;6.846;2022-11-02T13:06:36;6.85;;;2.08;;
35494;SDS011;21608;49.300;6.846;2022-11-02T13:09:52;4.80;;;2.20;;
35494;SDS011;21608;49.300;6.846;2022-11-02T13:13:12;4.85;;;2.40;;
35494;SDS011;21608;49.300;6.846;2022-11-02T13:16:16;3.45;;;2.22;;
35494;SDS011;21608;49.300;6.846;2022-11-02T13:19:22;5.38;;;2.05;;
35494;SDS011;21608;49.300;6.846;2022-11-02T13:22:33;1.73;;;1.27;;
35494;SDS011;21608;49.300;6.846;2022-11-02T13:25:39;6.45;;;2.40;;
35494;SDS011;21608;49.300;6.846;2022-11-02T13:28:47;6.25;;;2.55;;
35494;SDS011;21608;49.300;6.846;2022-11-02T13:37:07;4.20;;;2.00;;
35494;SDS011;21608;49.300;6.846;2022-11-02T13:40:24;4.05;;;2.00;;
35494;SDS011;21608;49.300;6.846;2022-11-02T13:50:24;3.83;;;2.13;;
35494;SDS011;21608;49.300;6.846;2022-11-02T13:53:29;4.90;;;1.95;;
35494;SDS011;21608;49.300;6.846;2022-11-02T13:56:36;2.65;;;1.88;;
35494;SDS011;21608;49.300;6.846;2022-11-02T13:59:39;4.50;;;1.92;;
35494;SDS011;21608;49.300;6.846;2022-11-02T14:02:44;3.92;;;2.25;;
35494;SDS011;21608;49.300;6.846;2022-11-02T14:05:47;4.18;;;2.00;;
35494;SDS011;21608;49.300;6.846;2022-11-02T14:08:59;5.35;;;2.25;;
35494;SDS011;21608;49.300;6.846;2022-11-02T14:12:11;4.25;;;1.55;;
35494;SDS011;21608;49.300;6.846;2022-11-02T14:18:24;3.22;;;2.22;;
35494;SDS011;21608;49.300;6.846;2022-11-02T14:21:44;3.00;;;1.80;;
35494;SDS011;21608;49.300;6.846;2022-11-02T14:24:52;3.15;;;2.03;;
35494;SDS011;21608;49.300;6.846;2022-11-02T14:27:55;2.38;;;1.60;;
35494;SDS011;21608;49.300;6.846;2022-11-02T14:34:20;4.35;;;1.83;;
35494;SDS011;21608;49.300;6.846;2022-11-02T14:41:08;4.70;;;2.10;;
35494;SDS011;21608;49.300;6.846;2022-11-02T14:47:45;3.15;;;2.00;;
35494;SDS011;21608;49.300;6.846;2022-11-02T14:51:01;4.32;;;1.70;;
35494;SDS011;21608;49.300;6.846;2022-11-02T14:54:11;2.83;;;2.03;;
35494;SDS011;21608;49.300;6.846;2022-11-02T14:57:24;6.22;;;2.05;;
35494;SDS011;21608;49.300;6.846;2022-11-02T15:03:53;3.17;;;1.73;;
35494;SDS011;21608;49.300;6.846;2022-11-02T15:06:56;2.40;;;1.70;;
35494;SDS011;21608;49.300;6.846;2022-11-02T15:10:00;3.13;;;1.73;;
35494;SDS011;21608;49.300;6.846;2022-11-02T15:16:22;2.22;;;1.70;;
35494;SDS011;21608;49.300;6.846;2022-11-02T15:19:40;1.55;;;1.35;;
35494;SDS011;21608;49.300;6.846;2022-11-02T15:22:47;2.28;;;1.38;;
35494;SDS011;21608;49.300;6.846;2022-11-02T15:25:55;3.97;;;1.73;;
35494;SDS011;21608;49.300;6.846;2022-11-02T15:29:00;2.75;;;1.63;;
35494;SDS011;21608;49.300;6.846;2022-11-02T15:32:05;2.85;;;1.75;;
35494;SDS011;21608;49.300;6.846;2022-11-02T15:35:13;3.42;;;1.80;;
35494;SDS011;21608;49.300;6.846;2022-11-02T15:38:23;2.17;;;1.40;;
35494;SDS011;21608;49.300;6.846;2022-11-02T15:41:44;4.18;;;1.30;;
35494;SDS011;21608;49.300;6.846;2022-11-02T15:48:42;5.95;;;2.53;;
35494;SDS011;21608;49.300;6.846;2022-11-02T15:51:54;5.65;;;2.38;;
35494;SDS011;21608;49.300;6.846;2022-11-02T16:01:22;5.30;;;1.80;;
35494;SDS011;21608;49.300;6.846;2022-11-02T16:04:28;3.17;;;2.23;;
35494;SDS011;21608;49.300;6.846;2022-11-02T16:07:30;2.70;;;1.67;;
35494;SDS011;21608;49.300;6.846;2022-11-02T16:11:02;4.97;;;2.15;;
35494;SDS011;21608;49.300;6.846;2022-11-02T16:14:15;4.40;;;1.88;;
35494;SDS011;21608;49.300;6.846;2022-11-02T16:17:18;3.80;;;2.25;;
35494;SDS011;21608;49.300;6.846;2022-11-02T16:20:27;2.63;;;1.73;;
35494;SDS011;21608;49.300;6.846;2022-11-02T16:23:32;4.72;;;2.42;;
35494;SDS011;21608;49.300;6.846;2022-11-02T16:26:36;5.90;;;2.03;;
35494;SDS011;21608;49.300;6.846;2022-11-02T16:29:38;3.78;;;2.00;;
35494;SDS011;21608;49.300;6.846;2022-11-02T16:32:40;4.13;;;1.83;;
35494;SDS011;21608;49.300;6.846;2022-11-02T16:35:42;2.85;;;1.65;;
35494;SDS011;21608;49.300;6.846;2022-11-02T16:38:46;5.55;;;2.10;;
35494;SDS011;21608;49.300;6.846;2022-11-02T16:41:56;6.28;;;1.58;;
35494;SDS011;21608;49.300;6.846;2022-11-02T16:45:00;4.57;;;1.83;;
35494;SDS011;21608;49.300;6.846;2022-11-02T16:48:24;4.30;;;1.70;;
35494;SDS011;21608;49.300;6.846;2022-11-02T16:51:27;3.15;;;1.83;;
35494;SDS011;21608;49.300;6.846;2022-11-02T16:57:40;6.93;;;1.60;;
35494;SDS011;21608;49.300;6.846;2022-11-02T17:00:55;5.10;;;1.77;;
35494;SDS011;21608;49.300;6.846;2022-11-02T17:03:57;4.15;;;1.52;;
35494;SDS011;21608;49.300;6.846;2022-11-02T17:07:12;3.70;;;1.65;;
35494;SDS011;21608;49.300;6.846;2022-11-02T17:10:23;3.72;;;1.83;;
35494;SDS011;21608;49.300;6.846;2022-11-02T17:13:28;3.85;;;1.45;;
35494;SDS011;21608;49.300;6.846;2022-11-02T17:16:32;3.47;;;1.50;;
35494;SDS011;21608;49.300;6.846;2022-11-02T17:22:50;3.33;;;1.35;;
35494;SDS011;21608;49.300;6.846;2022-11-02T17:29:34;3.22;;;1.63;;
35494;SDS011;21608;49.300;6.846;2022-11-02T17:32:41;5.10;;;1.60;;
35494;SDS011;21608;49.300;6.846;2022-11-02T17:35:46;6.32;;;2.00;;
35494;SDS011;21608;49.300;6.846;2022-11-02T17:38:49;3.17;;;2.10;;
35494;SDS011;21608;49.300;6.846;2022-11-02T17:41:52;2.05;;;1.52;;
35494;SDS011;21608;49.300;6.846;2022-11-02T17:45:56;3.75;;;1.40;;
35494;SDS011;21608;49.300;6.846;2022-11-02T17:48:38;3.95;;;1.85;;
35494;SDS011;21608;49.300;6.846;2022-11-02T17:51:40;2.85;;;1.70;;
35494;SDS011;21608;49.300;6.846;2022-11-02T17:54:42;2.65;;;1.40;;
35494;SDS011;21608;49.300;6.846;2022-11-02T17:57:44;4.45;;;1.70;;
35494;SDS011;21608;49.300;6.846;2022-11-02T18:00:46;2.28;;;1.20;;
35494;SDS011;21608;49.300;6.846;2022-11-02T18:03:48;7.13;;;1.83;;
35494;SDS011;21608;49.300;6.846;2022-11-02T18:06:50;4.85;;;1.60;;
35494;SDS011;21608;49.300;6.846;2022-11-02T18:09:51;3.08;;;1.63;;
35494;SDS011;21608;49.300;6.846;2022-11-02T18:12:53;3.72;;;1.60;;
35494;SDS011;21608;49.300;6.846;2022-11-02T18:15:55;5.40;;;1.33;;
35494;SDS011;21608;49.300;6.846;2022-11-02T18:18:57;3.45;;;1.63;;
35494;SDS011;21608;49.300;6.846;2022-11-02T18:21:59;4.95;;;1.63;;
35494;SDS011;21608;49.300;6.846;2022-11-02T18:25:01;3.13;;;1.50;;
35494;SDS011;21608;49.300;6.846;2022-11-02T18:28:03;2.30;;;1.45;;
35494;SDS011;21608;49.300;6.846;2022-11-02T18:31:06;2.70;;;1.33;;
35494;SDS011;21608;49.300;6.846;2022-11-02T18:34:08;2.80;;;1.60;;
35494;SDS011;21608;49.300;6.846;2022-11-02T18:37:10;3.08;;;1.35;;
35494;SDS011;21608;49.300;6.846;2022-11-02T18:40:13;2.70;;;1.58;;
35494;SDS011;21608;49.300;6.846;2022-11-02T18:43:17;2.05;;;1.77;;
35494;SDS011;21608;49.300;6.846;2022-11-02T18:46:19;3.58;;;1.70;;
35494;SDS011;21608;49.300;6.846;2022-11-02T18:49:21;3.78;;;1.60;;
35494;SDS011;21608;49.300;6.846;2022-11-02T18:52:22;5.30;;;1.73;;
35494;SDS011;21608;49.300;6.846;2022-11-02T18:55:28;4.22;;;1.42;;
35494;SDS011;21608;49.300;6.846;2022-11-02T18:58:30;1.98;;;1.60;;
35494;SDS011;21608;49.300;6.846;2022-11-02T19:01:31;3.45;;;1.60;;
35494;SDS011;21608;49.300;6.846;2022-11-02T19:04:33;1.80;;;1.55;;
35494;SDS011;21608;49.300;6.846;2022-11-02T19:07:35;6.35;;;2.20;;
35494;SDS011;21608;49.300;6.846;2022-11-02T19:10:55;4.78;;;1.60;;
35494;SDS011;21608;49.300;6.846;2022-11-02T19:13:57;2.88;;;1.77;;
35494;SDS011;21608;49.300;6.846;2022-11-02T19:16:59;1.95;;;1.10;;
35494;SDS011;21608;49.300;6.846;2022-11-02T19:20:01;4.75;;;2.03;;
35494;SDS011;21608;49.300;6.846;2022-11-02T19:23:03;3.60;;;1.73;;
35494;SDS011;21608;49.300;6.846;2022-11-02T19:26:05;2.85;;;1.70;;
35494;SDS011;21608;49.300;6.846;2022-11-02T19:29:07;2.30;;;1.55;;
35494;SDS011;21608;49.300;6.846;2022-11-02T19:32:08;7.10;;;2.20;;
35494;SDS011;21608;49.300;6.846;2022-11-02T19:35:10;7.70;;;2.50;;
35494;SDS011;21608;49.300;6.846;2022-11-02T19:38:12;15.40;;;2.40;;
35494;SDS011;21608;49.300;6.846;2022-11-02T19:41:14;7.28;;;2.50;;
35494;SDS011;21608;49.300;6.846;2022-11-02T19:44:17;6.60;;;3.05;;
35494;SDS011;21608;49.300;6.846;2022-11-02T19:47:19;12.38;;;2.85;;
35494;SDS011;21608;49.300;6.846;2022-11-02T19:50:21;7.78;;;3.03;;
35494;SDS011;21608;49.300;6.846;2022-11-02T19:53:22;8.65;;;3.15;;
35494;SDS011;21608;49.300;6.846;2022-11-02T19:56:25;13.90;;;3.03;;
35494;SDS011;21608;49.300;6.846;2022-11-02T19:59:28;5.05;;;2.35;;
35494;SDS011;21608;49.300;6.846;2022-11-02T20:02:30;8.20;;;2.65;;
35494;SDS011;21608;49.300;6.846;2022-11-02T20:05:32;4.97;;;2.45;;
35494;SDS011;21608;49.300;6.846;2022-11-02T20:08:34;3.95;;;2.40;;
35494;SDS011;21608;49.300;6.846;2022-11-02T20:11:35;5.88;;;2.70;;
35494;SDS011;21608;49.300;6.846;2022-11-02T20:14:39;12.75;;;3.05;;
35494;SDS011;21608;49.300;6.846;2022-11-02T20:17:41;3.08;;;1.80;;
35494;SDS011;21608;49.300;6.846;2022-11-02T20:21:05;3.17;;;1.98;;
35494;SDS011;21608;49.300;6.846;2022-11-02T20:24:11;4.63;;;2.50;;
35494;SDS011;21608;49.300;6.846;2022-11-02T20:27:13;6.88;;;2.42;;
35494;SDS011;21608;49.300;6.846;2022-11-02T20:30:15;3.25;;;2.10;;
35494;SDS011;21608;49.300;6.846;2022-11-02T20:33:19;3.63;;;2.30;;